Time;durP1;ratioP1;P1;durP2;ratioP2;P2;SDS_P1;SDS_P2;PMS_P1;PMS_P2;Temp;Humidity;BMP_temperature;BMP_pressure;BME280_temperature;BME280_humidity;BME280_pressure;Samples;Min_cycle;Max_cycle;Signal;HPM_P1;HPM_P2
2022/12/06 00:01:51;;;;;;;;;;;5.10;99.90;;;;;;5030957;28;19929;-73
2022/12/06 00:04:17;;;;;;;;;;;5.00;99.90;;;;;;5031476;28;19925;-73
2022/12/06 00:06:43;;;;;;;;;;;5.00;99.90;;;;;;5014047;28;20556;-73
2022/12/06 00:09:23;;;;;;;;;;;4.90;99.90;;;;;;5013982;28;20365;-72
2022/12/06 00:11:48;;;;;;;;;;;5.00;99.90;;;;;;5032025;28;19928;-72
2022/12/06 00:14:14;;;;;;;;;;;4.90;99.90;;;;;;5029969;28;19956;-72
2022/12/06 00:16:40;;;;;;;;;;;4.90;99.90;;;;;;5030746;28;19933;-73
2022/12/06 00:19:05;;;;;;;;;;;4.90;99.90;;;;;;5029764;28;19979;-73
2022/12/06 00:21:35;;;;;;;;;;;4.90;99.90;;;;;;5013449;28;20016;-73
2022/12/06 00:24:02;;;;;;;;;;;4.90;99.90;;;;;;5047207;28;19925;-72
2022/12/06 00:26:28;;;;;;;;;;;4.90;99.90;;;;;;5013880;28;19932;-72
2022/12/06 00:28:55;;;;;;;;;;;4.90;99.90;;;;;;5014128;28;19956;-73
2022/12/06 00:31:22;;;;;;;;;;;4.90;99.90;;;;;;5047002;28;19936;-73
2022/12/06 00:33:48;;;;;;;;;;;4.90;99.90;;;;;;5031542;28;19929;-71
2022/12/06 00:36:17;;;;;;;;;;;4.90;99.90;;;;;;5029938;28;19932;-72
2022/12/06 00:38:43;;;;;;;;;;;4.90;99.90;;;;;;5031169;28;19986;-72
2022/12/06 00:41:09;;;;;;;;;;;4.90;99.90;;;;;;5029895;28;20286;-73
2022/12/06 00:43:35;;;;;;;;;;;4.90;99.90;;;;;;5031057;28;20016;-72
2022/12/06 00:46:02;;;;;;;;;;;4.90;99.90;;;;;;5030321;28;20410;-72
2022/12/06 00:48:27;;;;;;;;;;;4.90;99.90;;;;;;5030732;28;20286;-73
2022/12/06 00:50:53;;;;;;;;;;;4.90;99.90;;;;;;5047002;28;19926;-73
2022/12/06 00:53:19;;;;;;;;;;;4.90;99.90;;;;;;5013077;28;20015;-73
2022/12/06 00:55:45;;;;;;;;;;;4.90;99.90;;;;;;5046730;28;19979;-73
2022/12/06 00:58:11;;;;;;;;;;;4.90;99.90;;;;;;5030516;28;19929;-73
2022/12/06 01:00:37;;;;;;;;;;;4.90;99.90;;;;;;5029907;28;19933;-73
2022/12/06 01:03:03;;;;;;;;;;;4.90;99.90;;;;;;5046709;28;19925;-73
2022/12/06 01:05:28;;;;;;;;;;;4.90;99.90;;;;;;5046222;28;20339;-73
2022/12/06 01:07:54;;;;;;;;;;;4.90;99.90;;;;;;5031121;28;20384;-73
2022/12/06 01:10:20;;;;;;;;;;;4.90;99.90;;;;;;5029801;28;20020;-73
2022/12/06 01:12:45;;;;;;;;;;;4.90;99.90;;;;;;5046286;28;19925;-73
2022/12/06 01:15:11;;;;;;;;;;;4.80;99.90;;;;;;5030417;28;19955;-73
2022/12/06 01:17:37;;;;;;;;;;;4.80;99.90;;;;;;5045990;28;19926;-72
2022/12/06 01:20:03;;;;;;;;;;;4.90;99.90;;;;;;5029677;28;19990;-74
2022/12/06 01:22:29;;;;;;;;;;;4.80;99.90;;;;;;5012573;28;19925;-74
2022/12/06 01:24:54;;;;;;;;;;;5.30;99.90;;;;;;5029349;28;19998;-73
2022/12/06 01:27:20;;;;;;;;;;;4.80;99.90;;;;;;5030202;28;19970;-73
2022/12/06 01:29:45;;;;;;;;;;;4.80;99.90;;;;;;5062717;28;19929;-73
2022/12/06 01:32:11;;;;;;;;;;;4.80;99.90;;;;;;5046024;28;19933;-73
2022/12/06 01:34:37;;;;;;;;;;;4.70;99.90;;;;;;5012759;28;19960;-73
2022/12/06 01:37:03;;;;;;;;;;;4.80;99.90;;;;;;5029280;28;19979;-74
2022/12/06 01:39:29;;;;;;;;;;;4.80;99.90;;;;;;5045448;28;19977;-72
2022/12/06 01:41:54;;;;;;;;;;;4.80;99.90;;;;;;4996601;28;19925;-73
2022/12/06 01:44:39;;;;;;;;;;;4.80;99.90;;;;;;5028697;28;19932;-73
2022/12/06 01:47:09;;;;;;;;;;;4.70;99.90;;;;;;5029209;28;19978;-73
2022/12/06 01:49:34;;;;;;;;;;;4.70;99.90;;;;;;5028904;28;20001;-73
2022/12/06 01:52:02;;;;;;;;;;;4.80;99.90;;;;;;5062316;28;20335;-74
2022/12/06 01:54:28;;;;;;;;;;;4.80;99.90;;;;;;5029598;28;19925;-73
2022/12/06 01:56:54;;;;;;;;;;;4.80;99.90;;;;;;5012518;28;19939;-72
2022/12/06 01:59:21;;;;;;;;;;;4.80;99.90;;;;;;4995798;28;19933;-73
2022/12/06 02:01:47;;;;;;;;;;;4.80;99.90;;;;;;5045673;28;19925;-73
2022/12/06 02:04:13;;;;;;;;;;;4.80;99.90;;;;;;5045607;28;20384;-73
2022/12/06 02:06:39;;;;;;;;;;;4.70;99.90;;;;;;5016778;28;19926;-72
2022/12/06 02:09:06;;;;;;;;;;;4.70;99.90;;;;;;4989322;28;19984;-73
2022/12/06 02:11:32;;;;;;;;;;;4.70;99.90;;;;;;4990251;28;20005;-72
2022/12/06 02:13:58;;;;;;;;;;;4.90;99.90;;;;;;4989231;28;20337;-72
2022/12/06 02:16:33;;;;;;;;;;;4.70;99.90;;;;;;5021941;28;20375;-73
2022/12/06 02:19:17;;;;;;;;;;;4.70;99.90;;;;;;5022001;28;19976;-72
2022/12/06 02:21:49;;;;;;;;;;;4.80;99.90;;;;;;4987432;28;20355;-72
2022/12/06 02:24:24;;;;;;;;;;;4.70;99.90;;;;;;4990479;28;19979;-73
2022/12/06 02:26:51;;;;;;;;;;;4.70;99.90;;;;;;5022003;28;19925;-73
2022/12/06 02:29:26;;;;;;;;;;;4.70;99.90;;;;;;4989193;28;20387;-72
2022/12/06 02:31:56;;;;;;;;;;;4.70;99.90;;;;;;5022152;28;19929;-73
2022/12/06 02:34:29;;;;;;;;;;;4.60;99.90;;;;;;5021864;28;19930;-73
2022/12/06 02:36:58;;;;;;;;;;;4.70;99.90;;;;;;5022124;28;19986;-73
2022/12/06 02:39:26;;;;;;;;;;;4.70;99.90;;;;;;5021239;28;19925;-74
2022/12/06 02:42:01;;;;;;;;;;;4.60;99.90;;;;;;5005222;28;19936;-74
2022/12/06 02:44:45;;;;;;;;;;;4.70;99.90;;;;;;5021593;28;19961;-73
2022/12/06 02:47:12;;;;;;;;;;;4.60;99.90;;;;;;5021931;28;19987;-73
2022/12/06 02:49:43;;;;;;;;;;;4.60;99.90;;;;;;4972606;28;20373;-74
2022/12/06 02:52:10;;;;;;;;;;;4.60;99.90;;;;;;5021581;28;19933;-73
2022/12/06 02:54:36;;;;;;;;;;;4.60;99.90;;;;;;5005021;28;19926;-72
2022/12/06 02:57:01;;;;;;;;;;;4.60;99.90;;;;;;4989996;28;20402;-73
2022/12/06 02:59:27;;;;;;;;;;;4.60;99.90;;;;;;4989645;28;20394;-72
2022/12/06 03:01:56;;;;;;;;;;;4.60;99.90;;;;;;4988646;28;19926;-74
2022/12/06 03:04:30;;;;;;;;;;;4.60;99.90;;;;;;5005007;28;19930;-73
2022/12/06 03:07:03;;;;;;;;;;;4.50;99.90;;;;;;5021122;27;20392;-73
2022/12/06 03:09:42;;;;;;;;;;;4.50;99.90;;;;;;4989585;28;19925;-73
2022/12/06 03:12:23;;;;;;;;;;;4.50;99.90;;;;;;5021679;28;19971;-73
2022/12/06 03:15:24;;;;;;;;;;;4.50;99.90;;;;;;4989225;28;19926;-73
2022/12/06 03:17:52;;;;;;;;;;;4.50;99.90;;;;;;5072160;28;19930;-73
2022/12/06 03:20:26;;;;;;;;;;;4.60;99.90;;;;;;5016949;28;20015;-73
2022/12/06 03:22:56;;;;;;;;;;;4.60;99.90;;;;;;4989393;28;19930;-74
2022/12/06 03:25:21;;;;;;;;;;;4.50;99.90;;;;;;4989852;28;19982;-73
2022/12/06 03:27:47;;;;;;;;;;;4.60;99.90;;;;;;5021055;28;20269;-73
2022/12/06 03:30:13;;;;;;;;;;;4.50;99.90;;;;;;4988562;28;19926;-73
2022/12/06 03:32:41;;;;;;;;;;;4.50;99.90;;;;;;4989757;28;19933;-75
2022/12/06 03:35:08;;;;;;;;;;;4.50;99.90;;;;;;5024380;28;20055;-73
2022/12/06 03:37:36;;;;;;;;;;;4.50;99.90;;;;;;4991529;28;19930;-73
2022/12/06 03:40:02;;;;;;;;;;;4.50;99.90;;;;;;5008188;28;20010;-74
2022/12/06 03:42:28;;;;;;;;;;;4.50;99.90;;;;;;5024688;28;20278;-73
2022/12/06 03:44:54;;;;;;;;;;;4.50;99.90;;;;;;4992425;28;20017;-73
2022/12/06 03:47:23;;;;;;;;;;;4.50;99.90;;;;;;4992687;28;20275;-72
2022/12/06 03:49:53;;;;;;;;;;;4.50;99.90;;;;;;4990853;28;19930;-73
2022/12/06 03:52:19;;;;;;;;;;;4.50;99.90;;;;;;4991396;28;20231;-74
2022/12/06 03:54:45;;;;;;;;;;;4.50;99.90;;;;;;5024092;28;20029;-73
2022/12/06 03:57:10;;;;;;;;;;;4.50;99.90;;;;;;4992266;28;20520;-73
2022/12/06 03:59:36;;;;;;;;;;;4.50;99.90;;;;;;4974950;28;19933;-74
2022/12/06 04:02:01;;;;;;;;;;;4.50;99.90;;;;;;5024466;28;19933;-74
2022/12/06 04:04:27;;;;;;;;;;;4.50;99.90;;;;;;4991347;28;19926;-72
2022/12/06 04:06:52;;;;;;;;;;;4.50;99.90;;;;;;5034045;27;20005;-73
2022/12/06 04:12:59;;;;;;;;;;;4.50;99.90;;;;;;5024301;28;19925;-74
2022/12/06 04:14:48;;;;;;;;;;;4.50;99.90;;;;;;5023545;28;19929;-73
2022/12/06 04:19:58;;;;;;;;;;;4.50;99.90;;;;;;5023840;28;20291;-74
2022/12/06 04:25:07;;;;;;;;;;;4.40;99.90;;;;;;5023990;28;20387;-74
2022/12/06 04:38:42;;;;;;;;;;;4.20;99.90;;;;;;5023663;28;20354;-74
2022/12/06 04:41:08;;;;;;;;;;;4.10;99.90;;;;;;4990547;28;19926;-73
2022/12/06 04:43:43;;;;;;;;;;;4.00;99.90;;;;;;5022599;28;19933;-74
2022/12/06 04:46:09;;;;;;;;;;;4.00;99.90;;;;;;5007166;28;19926;-73
2022/12/06 04:48:35;;;;;;;;;;;3.90;99.90;;;;;;5023627;28;19995;-73
2022/12/06 04:51:00;;;;;;;;;;;3.80;99.90;;;;;;4974011;28;20436;-75
2022/12/06 04:53:26;;;;;;;;;;;3.80;99.90;;;;;;4958440;28;19932;-73
2022/12/06 04:55:52;;;;;;;;;;;3.80;99.90;;;;;;5023010;28;19976;-72
2022/12/06 04:58:18;;;;;;;;;;;3.70;99.90;;;;;;5023481;28;19925;-72
2022/12/06 05:00:43;;;;;;;;;;;3.60;99.90;;;;;;5023327;28;19933;-73
2022/12/06 05:03:09;;;;;;;;;;;4.00;99.90;;;;;;4990381;28;19945;-73
2022/12/06 05:05:35;;;;;;;;;;;3.60;99.90;;;;;;5023283;28;20005;-73
2022/12/06 05:08:00;;;;;;;;;;;3.50;99.90;;;;;;5026569;28;20163;-74
2022/12/06 05:10:26;;;;;;;;;;;3.50;99.90;;;;;;5046254;28;19925;-74
2022/12/06 05:12:51;;;;;;;;;;;3.50;99.90;;;;;;5030326;28;20263;-72
2022/12/06 05:15:17;;;;;;;;;;;3.40;99.90;;;;;;5030754;28;19980;-73
2022/12/06 05:17:43;;;;;;;;;;;3.40;99.90;;;;;;5029525;28;19925;-73
2022/12/06 05:20:08;;;;;;;;;;;3.40;99.90;;;;;;5012908;28;20428;-73
2022/12/06 05:22:34;;;;;;;;;;;3.40;99.90;;;;;;5046356;28;19925;-73
2022/12/06 05:24:59;;;;;;;;;;;3.40;99.90;;;;;;5030374;28;19925;-73
2022/12/06 05:27:25;;;;;;;;;;;3.40;99.90;;;;;;5046100;28;20315;-74
2022/12/06 05:29:50;;;;;;;;;;;3.40;99.90;;;;;;5012745;28;19929;-73
2022/12/06 05:32:16;;;;;;;;;;;3.50;99.90;;;;;;5030432;28;19925;-72
2022/12/06 05:34:42;;;;;;;;;;;3.40;99.90;;;;;;5045801;28;19932;-73
2022/12/06 05:37:07;;;;;;;;;;;3.50;99.90;;;;;;5045688;28;19932;-73
2022/12/06 05:39:33;;;;;;;;;;;3.60;99.90;;;;;;5046396;28;20365;-73
2022/12/06 05:41:58;;;;;;;;;;;3.50;99.90;;;;;;5028721;28;19974;-73
2022/12/06 05:44:24;;;;;;;;;;;3.50;99.90;;;;;;5013147;28;19957;-74
2022/12/06 05:46:49;;;;;;;;;;;3.50;99.90;;;;;;5045654;28;19925;-72
2022/12/06 05:49:15;;;;;;;;;;;3.50;99.90;;;;;;4996814;28;19925;-73
2022/12/06 05:51:40;;;;;;;;;;;3.60;99.90;;;;;;5045474;28;20364;-73
2022/12/06 05:54:06;;;;;;;;;;;3.60;99.90;;;;;;5062143;28;19985;-73
2022/12/06 05:56:32;;;;;;;;;;;3.40;99.90;;;;;;5045709;28;19931;-72
2022/12/06 05:58:57;;;;;;;;;;;3.40;99.90;;;;;;5029883;28;19925;-74
2022/12/06 06:01:25;;;;;;;;;;;3.30;99.90;;;;;;5044435;28;20191;-72
2022/12/06 06:03:51;;;;;;;;;;;3.30;99.90;;;;;;5045121;28;20504;-73
2022/12/06 06:06:16;;;;;;;;;;;3.80;99.90;;;;;;5045312;28;19932;-72
2022/12/06 06:08:42;;;;;;;;;;;3.60;99.90;;;;;;5045812;28;19976;-73
2022/12/06 06:11:07;;;;;;;;;;;3.30;99.90;;;;;;5045344;28;19929;-72
2022/12/06 06:13:33;;;;;;;;;;;3.30;99.90;;;;;;5030014;28;19931;-73
2022/12/06 06:15:59;;;;;;;;;;;3.40;99.90;;;;;;5045112;28;19925;-74
2022/12/06 06:18:24;;;;;;;;;;;3.50;99.90;;;;;;5045398;28;20008;-74
2022/12/06 06:20:51;;;;;;;;;;;3.50;99.90;;;;;;5045234;28;19932;-74
2022/12/06 06:23:17;;;;;;;;;;;3.50;99.90;;;;;;5044845;28;19925;-73
2022/12/06 06:25:42;;;;;;;;;;;3.50;99.90;;;;;;5028298;28;20389;-72
2022/12/06 06:28:08;;;;;;;;;;;3.60;99.90;;;;;;5012029;28;19925;-74
2022/12/06 06:30:33;;;;;;;;;;;3.60;99.90;;;;;;5045171;28;19925;-73
2022/12/06 06:32:59;;;;;;;;;;;3.60;99.90;;;;;;5044798;28;19970;-73
2022/12/06 06:35:25;;;;;;;;;;;3.60;99.90;;;;;;5012044;28;19925;-74
2022/12/06 06:37:50;;;;;;;;;;;3.60;99.90;;;;;;5044872;28;19925;-73
2022/12/06 06:40:16;;;;;;;;;;;3.60;99.90;;;;;;5029210;28;19921;-73
2022/12/06 06:42:41;;;;;;;;;;;3.60;99.90;;;;;;5028506;28;20016;-73
2022/12/06 06:45:07;;;;;;;;;;;3.50;99.90;;;;;;5029104;28;19925;-73
2022/12/06 06:47:33;;;;;;;;;;;3.50;99.90;;;;;;5044671;28;20048;-73
2022/12/06 06:49:58;;;;;;;;;;;3.50;99.90;;;;;;5061336;28;19926;-72
2022/12/06 06:52:24;;;;;;;;;;;3.40;99.90;;;;;;5029484;28;19932;-73
2022/12/06 06:54:49;;;;;;;;;;;3.70;99.90;;;;;;5012000;28;20097;-73
2022/12/06 06:57:15;;;;;;;;;;;3.30;99.90;;;;;;5044296;28;19932;-73
2022/12/06 06:59:41;;;;;;;;;;;3.30;99.90;;;;;;5029441;28;19929;-73
2022/12/06 07:02:10;;;;;;;;;;;3.20;99.90;;;;;;5028173;28;19926;-73
2022/12/06 07:04:36;;;;;;;;;;;3.20;99.90;;;;;;5044906;28;19975;-70
2022/12/06 07:07:01;;;;;;;;;;;3.20;99.90;;;;;;5010251;28;19968;-71
2022/12/06 07:09:27;;;;;;;;;;;3.10;99.90;;;;;;5028818;28;19932;-72
2022/12/06 07:11:53;;;;;;;;;;;3.00;99.90;;;;;;5044228;28;19925;-72
2022/12/06 07:14:18;;;;;;;;;;;3.60;99.90;;;;;;5011224;28;19926;-73
2022/12/06 07:16:44;;;;;;;;;;;3.00;99.90;;;;;;5028919;28;20295;-72
2022/12/06 07:19:09;;;;;;;;;;;3.00;99.90;;;;;;5043978;28;19925;-75
2022/12/06 07:21:35;;;;;;;;;;;2.90;99.90;;;;;;5044602;28;20005;-76
2022/12/06 07:24:00;;;;;;;;;;;3.00;99.90;;;;;;5044101;28;19958;-71
2022/12/06 07:26:27;;;;;;;;;;;3.00;99.90;;;;;;5027496;28;19925;-73
2022/12/06 07:28:56;;;;;;;;;;;2.90;99.90;;;;;;5027248;28;19925;-72
2022/12/06 07:31:28;;;;;;;;;;;2.90;99.90;;;;;;5010952;28;20607;-73
2022/12/06 07:33:55;;;;;;;;;;;2.90;99.90;;;;;;5027830;28;20259;-71
2022/12/06 07:36:22;;;;;;;;;;;2.90;99.90;;;;;;5028634;28;20267;-74
2022/12/06 07:38:54;;;;;;;;;;;2.90;99.90;;;;;;5043931;28;19929;-72
2022/12/06 07:46:49;;;;;;;;;;;2.80;99.90;;;;;;5044408;28;19932;-73
2022/12/06 07:49:16;;;;;;;;;;;2.80;99.90;;;;;;5028293;28;19925;-72
2022/12/06 07:51:42;;;;;;;;;;;2.80;99.90;;;;;;5044300;28;19936;-73
2022/12/06 07:54:08;;;;;;;;;;;2.80;99.90;;;;;;5043944;28;20358;-74
2022/12/06 07:56:33;;;;;;;;;;;2.80;99.90;;;;;;5027567;28;20012;-74
2022/12/06 07:59:00;;;;;;;;;;;2.80;99.90;;;;;;5027179;28;19929;-74
2022/12/06 08:01:25;;;;;;;;;;;2.90;99.90;;;;;;5043528;28;20130;-75
2022/12/06 08:03:52;;;;;;;;;;;3.00;99.90;;;;;;5027940;28;19929;-75
2022/12/06 08:06:18;;;;;;;;;;;3.00;99.90;;;;;;5026790;28;19925;-74
2022/12/06 08:08:43;;;;;;;;;;;3.10;99.90;;;;;;5060602;28;19932;-73
2022/12/06 08:11:09;;;;;;;;;;;3.20;99.90;;;;;;5027019;28;19925;-74
2022/12/06 08:13:35;;;;;;;;;;;3.20;99.90;;;;;;5044176;28;20008;-75
2022/12/06 08:16:08;;;;;;;;;;;3.30;99.90;;;;;;5028381;28;20052;-75
2022/12/06 08:18:34;;;;;;;;;;;3.30;99.90;;;;;;5045636;28;20305;-77
2022/12/06 08:21:00;;;;;;;;;;;3.30;99.90;;;;;;5047511;28;19929;-74
2022/12/06 08:23:26;;;;;;;;;;;3.40;99.90;;;;;;5030220;28;19941;-75
2022/12/06 08:26:02;;;;;;;;;;;3.50;99.90;;;;;;5047575;28;20366;-74
2022/12/06 08:28:28;;;;;;;;;;;3.40;99.90;;;;;;5010020;28;19925;-78
2022/12/06 08:30:54;;;;;;;;;;;3.50;99.90;;;;;;5026951;28;20146;-77
2022/12/06 08:33:20;;;;;;;;;;;3.50;99.90;;;;;;5045641;28;20012;-78
2022/12/06 08:35:47;;;;;;;;;;;3.50;99.90;;;;;;5027510;28;19980;-77
2022/12/06 08:38:13;;;;;;;;;;;3.60;99.90;;;;;;5028651;28;20535;-78
2022/12/06 08:40:39;;;;;;;;;;;3.60;99.90;;;;;;5045482;28;19985;-77
2022/12/06 08:43:04;;;;;;;;;;;3.60;99.90;;;;;;5046259;28;20270;-78
2022/12/06 08:45:30;;;;;;;;;;;3.60;99.90;;;;;;5045813;28;19976;-75
2022/12/06 08:47:55;;;;;;;;;;;3.60;99.90;;;;;;5046715;28;20366;-76
2022/12/06 08:50:21;;;;;;;;;;;3.70;99.90;;;;;;5013179;28;19982;-75
2022/12/06 08:52:47;;;;;;;;;;;3.70;99.90;;;;;;5012472;28;19929;-76
2022/12/06 08:55:12;;;;;;;;;;;3.80;99.90;;;;;;5046940;28;19977;-77
2022/12/06 08:57:38;;;;;;;;;;;3.70;99.90;;;;;;5047048;28;20348;-77
2022/12/06 09:00:05;;;;;;;;;;;3.80;99.90;;;;;;5046915;28;19925;-77
2022/12/06 09:02:30;;;;;;;;;;;3.80;99.90;;;;;;5046268;28;19925;-77
2022/12/06 09:04:56;;;;;;;;;;;3.80;99.90;;;;;;5047232;28;19995;-77
2022/12/06 09:07:22;;;;;;;;;;;3.80;99.90;;;;;;5046248;28;20015;-76
2022/12/06 09:09:48;;;;;;;;;;;3.90;99.90;;;;;;5047006;28;19930;-76
2022/12/06 09:12:13;;;;;;;;;;;4.00;99.90;;;;;;4997158;28;19925;-76
2022/12/06 09:14:39;;;;;;;;;;;4.30;99.90;;;;;;5046508;28;19926;-77
2022/12/06 09:17:05;;;;;;;;;;;4.00;99.90;;;;;;5030230;28;20286;-77
2022/12/06 09:19:31;;;;;;;;;;;4.10;99.90;;;;;;5013085;28;20065;-76
2022/12/06 09:21:56;;;;;;;;;;;4.00;99.90;;;;;;5062541;28;19929;-77
2022/12/06 09:24:22;;;;;;;;;;;4.00;99.90;;;;;;5046432;28;19932;-77
2022/12/06 09:26:48;;;;;;;;;;;4.00;99.90;;;;;;5046383;28;20286;-75
2022/12/06 09:29:14;;;;;;;;;;;4.00;99.90;;;;;;5029198;28;20305;-76
2022/12/06 09:31:40;;;;;;;;;;;4.00;99.90;;;;;;4996111;28;19921;-76
2022/12/06 09:34:07;;;;;;;;;;;4.00;99.90;;;;;;5028979;28;20427;-74
2022/12/06 09:36:35;;;;;;;;;;;4.10;99.90;;;;;;4997043;28;19965;-73
2022/12/06 09:39:05;;;;;;;;;;;4.10;99.90;;;;;;5045588;28;19976;-75
2022/12/06 09:41:48;;;;;;;;;;;4.20;99.90;;;;;;5029339;28;20011;-75
2022/12/06 09:44:32;;;;;;;;;;;4.30;99.90;;;;;;5045720;28;19925;-74
2022/12/06 09:47:00;;;;;;;;;;;4.40;99.90;;;;;;5046651;28;20016;-74
2022/12/06 09:49:27;;;;;;;;;;;4.50;99.90;;;;;;5045303;28;19921;-76
2022/12/06 09:51:56;;;;;;;;;;;4.50;99.90;;;;;;5027995;28;19985;-74
2022/12/06 09:54:27;;;;;;;;;;;4.50;99.90;;;;;;5045560;28;19975;-71
2022/12/06 09:57:11;;;;;;;;;;;4.50;99.90;;;;;;5045505;28;20300;-70
2022/12/06 09:59:44;;;;;;;;;;;4.50;99.90;;;;;;5045300;28;19925;-70
2022/12/06 10:02:24;;;;;;;;;;;4.50;99.90;;;;;;5045552;28;20370;-71
2022/12/06 10:05:08;;;;;;;;;;;4.60;99.90;;;;;;5029791;28;19970;-74
2022/12/06 10:07:48;;;;;;;;;;;4.60;99.90;;;;;;5011252;28;19933;-72
2022/12/06 10:10:16;;;;;;;;;;;4.80;99.90;;;;;;4990425;28;19926;-72
2022/12/06 10:12:58;;;;;;;;;;;4.80;99.90;;;;;;5021293;28;19934;-73
2022/12/06 10:15:42;;;;;;;;;;;4.80;99.90;;;;;;5004908;28;19922;-72
2022/12/06 10:18:15;;;;;;;;;;;4.80;99.90;;;;;;4991018;28;19926;-73
2022/12/06 10:21:04;;;;;;;;;;;4.90;99.90;;;;;;5021390;28;19981;-72
2022/12/06 10:23:48;;;;;;;;;;;4.90;99.90;;;;;;4988508;28;19977;-74
2022/12/06 10:26:25;;;;;;;;;;;4.90;99.90;;;;;;5021270;28;20450;-72
2022/12/06 10:29:29;;;;;;;;;;;4.90;99.90;;;;;;5005698;28;20375;-72
2022/12/06 10:31:56;;;;;;;;;;;5.00;99.90;;;;;;5004185;28;20148;-70
2022/12/06 10:34:25;;;;;;;;;;;5.00;99.90;;;;;;4955644;28;19926;-73
2022/12/06 10:36:57;;;;;;;;;;;5.00;99.90;;;;;;4994644;28;19926;-72
2022/12/06 10:39:26;;;;;;;;;;;5.00;99.90;;;;;;5021601;28;19982;-71
2022/12/06 10:42:05;;;;;;;;;;;5.10;99.90;;;;;;5020132;28;20366;-69
2022/12/06 10:44:35;;;;;;;;;;;5.10;99.90;;;;;;4972841;28;20359;-70
2022/12/06 10:47:07;;;;;;;;;;;5.20;99.90;;;;;;5003704;28;20131;-70
2022/12/06 10:49:36;;;;;;;;;;;5.30;99.90;;;;;;5021861;28;20332;-71
2022/12/06 10:52:08;;;;;;;;;;;5.30;99.90;;;;;;5005529;28;20111;-69
2022/12/06 10:54:33;;;;;;;;;;;5.30;99.90;;;;;;5005321;28;19975;-71
2022/12/06 10:57:01;;;;;;;;;;;5.40;99.90;;;;;;5021737;28;19929;-71
2022/12/06 10:59:30;;;;;;;;;;;5.50;99.90;;;;;;4989974;28;19926;-70
2022/12/06 11:01:57;;;;;;;;;;;5.40;99.90;;;;;;4988758;28;19926;-70
2022/12/06 11:04:32;;;;;;;;;;;5.50;99.90;;;;;;5021394;28;20009;-70
2022/12/06 11:07:01;;;;;;;;;;;5.50;99.90;;;;;;4988637;28;19969;-70
2022/12/06 11:09:30;;;;;;;;;;;5.50;99.90;;;;;;5021817;28;19927;-70
2022/12/06 11:11:56;;;;;;;;;;;5.50;99.90;;;;;;5005448;28;19926;-70
2022/12/06 11:14:25;;;;;;;;;;;5.50;99.90;;;;;;5005377;28;19941;-70
2022/12/06 11:16:58;;;;;;;;;;;5.50;99.90;;;;;;5021243;28;19942;-71
2022/12/06 11:19:35;;;;;;;;;;;5.60;99.90;;;;;;4989819;28;20495;-70
2022/12/06 11:22:07;;;;;;;;;;;5.70;99.90;;;;;;5021745;28;19926;-75
2022/12/06 11:24:35;;;;;;;;;;;5.70;99.90;;;;;;5021509;28;20095;-72
2022/12/06 11:27:07;;;;;;;;;;;5.90;99.90;;;;;;4989695;28;19930;-69
2022/12/06 11:29:32;;;;;;;;;;;5.90;99.90;;;;;;5020701;28;20379;-71
2022/12/06 11:31:59;;;;;;;;;;;5.90;99.90;;;;;;4988334;28;20070;-72
2022/12/06 11:34:28;;;;;;;;;;;5.90;99.90;;;;;;5021612;28;19926;-72
2022/12/06 11:36:54;;;;;;;;;;;6.00;99.90;;;;;;4988286;28;20291;-71
2022/12/06 11:39:20;;;;;;;;;;;5.80;99.90;;;;;;4989648;28;20094;-72
2022/12/06 11:41:48;;;;;;;;;;;5.80;99.90;;;;;;5004865;28;20393;-72
2022/12/06 11:44:17;;;;;;;;;;;5.80;99.90;;;;;;4989892;28;19926;-71
2022/12/06 11:46:43;;;;;;;;;;;6.00;99.90;;;;;;5004903;28;20000;-71
2022/12/06 11:49:18;;;;;;;;;;;5.80;99.90;;;;;;5005190;28;19926;-74
2022/12/06 11:51:43;;;;;;;;;;;5.80;99.90;;;;;;4989551;28;20291;-72
2022/12/06 11:54:21;;;;;;;;;;;5.80;99.90;;;;;;5007048;28;19926;-74
2022/12/06 11:56:47;;;;;;;;;;;5.90;99.90;;;;;;5008604;28;19930;-75
2022/12/06 11:59:31;;;;;;;;;;;5.90;99.90;;;;;;5024083;28;19933;-74
2022/12/06 12:01:59;;;;;;;;;;;5.90;99.90;;;;;;4992700;28;19979;-79
2022/12/06 12:04:25;;;;;;;;;;;6.00;99.90;;;;;;5024637;28;19926;-76
2022/12/06 12:07:23;;;;;;;;;;;6.10;99.90;;;;;;4991297;28;20390;-77
2022/12/06 12:09:55;;;;;;;;;;;6.10;99.90;;;;;;5052323;28;19925;-77
2022/12/06 12:12:22;;;;;;;;;;;6.20;99.90;;;;;;4992094;28;19968;-75
2022/12/06 12:14:53;;;;;;;;;;;6.50;99.90;;;;;;5024252;28;20465;-74
2022/12/06 12:17:21;;;;;;;;;;;6.20;99.90;;;;;;5024639;28;19933;-76
2022/12/06 12:19:56;;;;;;;;;;;6.30;99.90;;;;;;5023931;28;20315;-76
2022/12/06 12:22:23;;;;;;;;;;;6.20;99.90;;;;;;5024457;28;19983;-76
2022/12/06 12:24:50;;;;;;;;;;;6.20;99.90;;;;;;5024388;28;20366;-76
2022/12/06 12:27:36;;;;;;;;;;;6.20;99.90;;;;;;5024959;28;19925;-76
2022/12/06 12:30:14;;;;;;;;;;;6.20;99.90;;;;;;4991525;28;19991;-77
2022/12/06 12:32:40;;;;;;;;;;;6.30;99.90;;;;;;4992137;28;20430;-77
2022/12/06 12:35:21;;;;;;;;;;;6.20;99.90;;;;;;5024374;28;20275;-77
2022/12/06 12:37:52;;;;;;;;;;;6.20;99.90;;;;;;5023988;28;19944;-78
2022/12/06 12:40:29;;;;;;;;;;;6.30;99.90;;;;;;4991065;28;19995;-77
2022/12/06 12:42:59;;;;;;;;;;;6.30;99.90;;;;;;5007384;28;20008;-76
2022/12/06 12:45:26;;;;;;;;;;;6.20;99.90;;;;;;5024095;28;19926;-77
2022/12/06 12:47:56;;;;;;;;;;;6.30;99.90;;;;;;4990955;28;19948;-74
2022/12/06 12:50:22;;;;;;;;;;;6.20;99.90;;;;;;5023972;28;19926;-78
2022/12/06 12:52:49;;;;;;;;;;;6.30;99.90;;;;;;5023703;28;19979;-78
2022/12/06 12:55:16;;;;;;;;;;;6.30;99.90;;;;;;4992205;28;19926;-78
2022/12/06 12:57:43;;;;;;;;;;;6.30;99.90;;;;;;5007279;28;19925;-77
2022/12/06 13:00:14;;;;;;;;;;;6.30;99.90;;;;;;4990988;28;19926;-77
2022/12/06 13:02:40;;;;;;;;;;;6.30;99.90;;;;;;5023774;28;19973;-77
2022/12/06 13:05:17;;;;;;;;;;;6.30;99.90;;;;;;4991349;28;19987;-77
2022/12/06 13:07:43;;;;;;;;;;;6.30;99.90;;;;;;5041048;28;19925;-77
2022/12/06 13:10:35;;;;;;;;;;;6.40;99.90;;;;;;5046896;28;19925;-76
2022/12/06 13:13:03;;;;;;;;;;;6.30;99.90;;;;;;5033052;28;20207;-76
2022/12/06 13:15:32;;;;;;;;;;;6.40;99.90;;;;;;5030882;28;19979;-78
2022/12/06 13:17:59;;;;;;;;;;;6.30;99.90;;;;;;5030018;28;19926;-79
2022/12/06 13:20:32;;;;;;;;;;;6.40;99.90;;;;;;5030183;28;19926;-80
2022/12/06 13:23:00;;;;;;;;;;;6.40;99.90;;;;;;5031351;28;19947;-78
2022/12/06 13:25:25;;;;;;;;;;;6.40;99.90;;;;;;5046751;28;19925;-77
2022/12/06 13:27:53;;;;;;;;;;;6.40;99.90;;;;;;5046104;28;19952;-77
2022/12/06 13:30:23;;;;;;;;;;;6.40;99.90;;;;;;5013623;28;19925;-77
2022/12/06 13:32:53;;;;;;;;;;;6.40;99.90;;;;;;5030839;28;20407;-78
2022/12/06 13:35:19;;;;;;;;;;;6.40;99.90;;;;;;5046325;28;20382;-78
2022/12/06 13:37:51;;;;;;;;;;;6.30;99.90;;;;;;5046113;28;19936;-73
2022/12/06 13:40:31;;;;;;;;;;;6.40;99.90;;;;;;5029585;28;20034;-75
2022/12/06 13:43:05;;;;;;;;;;;6.40;99.90;;;;;;5045913;28;19926;-76
2022/12/06 13:45:44;;;;;;;;;;;6.40;99.90;;;;;;5030279;28;20465;-77
2022/12/06 13:48:25;;;;;;;;;;;6.40;99.90;;;;;;5046305;28;19933;-76
2022/12/06 13:50:54;;;;;;;;;;;6.40;99.90;;;;;;5034061;28;20573;-76
2022/12/06 13:53:21;;;;;;;;;;;6.40;99.90;;;;;;5047523;28;19932;-76
2022/12/06 13:55:46;;;;;;;;;;;6.40;99.90;;;;;;5046273;28;19925;-77
2022/12/06 13:58:15;;;;;;;;;;;6.40;99.90;;;;;;5030755;28;19925;-78
2022/12/06 14:00:40;;;;;;;;;;;6.30;99.90;;;;;;5046256;28;19940;-74
2022/12/06 14:03:12;;;;;;;;;;;6.40;99.90;;;;;;5045338;28;19925;-77
2022/12/06 14:06:04;;;;;;;;;;;6.40;99.90;;;;;;5045695;28;20242;-75
2022/12/06 14:08:42;;;;;;;;;;;6.40;99.90;;;;;;5046086;28;20019;-76
2022/12/06 14:11:14;;;;;;;;;;;6.40;99.90;;;;;;5045818;28;19945;-76
2022/12/06 14:13:40;;;;;;;;;;;6.40;99.90;;;;;;5045675;28;19925;-74
2022/12/06 14:16:07;;;;;;;;;;;6.40;99.90;;;;;;5029905;28;20015;-73
2022/12/06 14:18:33;;;;;;;;;;;6.40;99.90;;;;;;5029966;28;20362;-75
2022/12/06 14:21:00;;;;;;;;;;;6.40;99.90;;;;;;5045471;28;19972;-75
2022/12/06 14:23:34;;;;;;;;;;;6.40;99.90;;;;;;5012581;28;19972;-70
2022/12/06 14:26:29;;;;;;;;;;;6.40;99.90;;;;;;5045405;28;19929;-70
2022/12/06 14:28:57;;;;;;;;;;;6.40;99.90;;;;;;5024439;28;19925;-70
2022/12/06 14:31:27;;;;;;;;;;;6.40;99.90;;;;;;5029018;28;19981;-70
2022/12/06 14:33:53;;;;;;;;;;;6.30;99.90;;;;;;5030201;28;19925;-70
2022/12/06 14:36:22;;;;;;;;;;;6.30;99.90;;;;;;5045658;28;19965;-71
2022/12/06 14:39:00;;;;;;;;;;;6.40;99.90;;;;;;5028707;28;20069;-71
2022/12/06 14:44:15;;;;;;;;;;;6.30;99.90;;;;;;5045247;28;20289;-71
2022/12/06 14:46:45;;;;;;;;;;;6.40;99.90;;;;;;5029383;28;20409;-71
2022/12/06 14:51:56;;;;;;;;;;;6.30;99.90;;;;;;5045283;27;20286;-70
2022/12/06 14:54:25;;;;;;;;;;;6.40;99.90;;;;;;5029616;28;19926;-69
2022/12/06 14:56:51;;;;;;;;;;;6.40;99.90;;;;;;5029630;28;19929;-70
2022/12/06 14:59:17;;;;;;;;;;;6.40;99.90;;;;;;5044751;28;20089;-70
2022/12/06 15:01:47;;;;;;;;;;;6.30;99.90;;;;;;5013480;28;19976;-70
2022/12/06 15:04:33;;;;;;;;;;;6.30;99.90;;;;;;5044886;28;20286;-70
2022/12/06 15:06:58;;;;;;;;;;;6.30;99.90;;;;;;5029042;28;19973;-70
2022/12/06 15:09:27;;;;;;;;;;;6.30;99.90;;;;;;5044524;28;20019;-70
2022/12/06 15:14:56;;;;;;;;;;;6.30;99.90;;;;;;5045100;28;19925;-70